Weather at Narrabri Airport

Public forecast

Using degrees Celsius for public forecast. Weather courtesy of forecast.io.

Current aviation weather report (METAR) for Narrabri Airport

Retrieved 2021/10/27 06:00 UTC (8 minutes ago):

YNBR 270600Z AUTO 24008KT 9999 // NCD 32/06 Q1013

Closest aviation forecast (TAF) to Narrabri Airport

Closest forecast is Tamworth Airport, 69.9 nm (129.4 km) SE. Retrieved 2021/10/27 06:00 UTC (8 minutes ago):

TAF YSTW 270505Z 2706/2800 27010KT CAVOK BECMG 2709/2711 15005KT CAVOK FM272200 34006KT CAVOK